Blair, Illinois
Current Conditions -  °F | °C
As of 7:15 PM on Thursday 27 Nov 2014 (Local Time) from KFOA Reporting Station
Clear Clear  
Wind Chill: 16°   Ceiling: Unl
Heat Index: 22°   Visibility: 10mi
Dew Point: 18°   Wind: 5mph
Humidity: 82%   Direction: 320°NW
Pressure: 30.49"   Gusts: NA
Location:  38.8267°N, 88.5024°W
Report Text: KFOA 280115Z AUTO 32004KT 10SM CLR M05/M08 A3049 RMK AO2 T10531080
Loading
Personal Weather Stations






























Interactive Weather Map New forecast layout! Learn more

10-Day Weather Forecast

Advertisements
Track Severe Weather on mobile